createdAt,value
2022-08-26T00:02:56.080Z,1005.69
2022-08-26T00:06:04.278Z,1005.68
2022-08-26T00:09:12.377Z,1005.61
2022-08-26T00:12:20.252Z,1005.72
2022-08-26T00:15:25.789Z,1005.69
2022-08-26T00:18:38.574Z,1005.62
2022-08-26T00:21:37.744Z,1005.65
2022-08-26T00:24:47.831Z,1005.66
2022-08-26T00:27:55.810Z,1005.64
2022-08-26T00:31:03.679Z,1005.59
2022-08-26T00:34:11.227Z,1005.57
2022-08-26T00:37:20.431Z,1005.57
2022-08-26T00:40:28.486Z,1005.58
2022-08-26T00:43:46.444Z,1005.56
2022-08-26T00:46:46.436Z,1005.47
2022-08-26T00:49:43.852Z,1005.52
2022-08-26T00:52:52.278Z,1005.52
2022-08-26T00:55:59.900Z,1005.52
2022-08-26T00:59:08.064Z,1005.50
2022-08-26T01:02:20.302Z,1005.48
2022-08-26T01:05:18.311Z,1005.49
2022-08-26T01:08:26.682Z,1005.45
2022-08-26T01:11:35.644Z,1005.47
2022-08-26T01:14:43.476Z,1005.48
2022-08-26T01:17:43.995Z,1005.45
2022-08-26T01:20:51.975Z,1005.43
2022-08-26T01:23:57.446Z,1005.46
2022-08-26T01:26:55.022Z,1005.44
2022-08-26T01:30:03.112Z,1005.45
2022-08-26T01:33:11.076Z,1005.37
2022-08-26T01:36:19.214Z,1005.49
2022-08-26T01:39:28.725Z,1005.48
2022-08-26T01:42:36.655Z,1005.58
2022-08-26T01:45:44.676Z,1005.55
2022-08-26T01:48:54.433Z,1005.52
2022-08-26T01:52:02.491Z,1005.51
2022-08-26T01:55:11.377Z,1005.55
2022-08-26T01:58:19.302Z,1005.47
2022-08-26T02:01:29.201Z,1005.47
2022-08-26T02:04:37.797Z,1005.45
2022-08-26T02:07:45.629Z,1005.35
2022-08-26T02:10:54.773Z,1005.44
2022-08-26T02:14:03.369Z,1005.39
2022-08-26T02:17:11.015Z,1005.34
2022-08-26T02:20:19.516Z,1005.35
2022-08-26T02:23:28.115Z,1005.43
2022-08-26T02:26:35.834Z,1005.37
2022-08-26T02:29:44.991Z,1005.42
2022-08-26T02:32:53.006Z,1005.37
2022-08-26T02:36:00.901Z,1005.31
2022-08-26T02:39:09.285Z,1005.34
2022-08-26T02:42:17.316Z,1005.34
2022-08-26T02:45:25.128Z,1005.26
2022-08-26T02:48:33.008Z,1005.26
2022-08-26T02:51:41.088Z,1005.24
2022-08-26T02:54:51.099Z,1005.25
2022-08-26T02:57:59.046Z,1005.25
2022-08-26T03:01:07.483Z,1005.20
2022-08-26T03:04:15.522Z,1005.13
2022-08-26T03:07:24.053Z,1005.21
2022-08-26T03:10:32.551Z,1005.12
2022-08-26T03:13:40.362Z,1005.17
2022-08-26T03:16:48.704Z,1005.17
2022-08-26T03:19:56.999Z,1005.17
2022-08-26T03:23:05.302Z,1005.16
2022-08-26T03:26:13.786Z,1005.14
2022-08-26T03:29:21.663Z,1005.16
2022-08-26T03:32:29.453Z,1005.23
2022-08-26T03:35:38.268Z,1005.20
2022-08-26T03:38:47.526Z,1005.16
2022-08-26T03:41:55.522Z,1005.14
2022-08-26T03:45:03.107Z,1005.17
2022-08-26T03:48:10.971Z,1005.16
2022-08-26T03:51:18.567Z,1005.11
2022-08-26T03:54:27.220Z,1005.04
2022-08-26T03:57:35.130Z,1005.05
2022-08-26T04:00:43.257Z,1005.08
2022-08-26T04:03:51.758Z,1005.10
2022-08-26T04:06:59.933Z,1005.04
2022-08-26T04:10:07.807Z,1005.07
2022-08-26T04:13:18.100Z,1005.05
2022-08-26T04:16:26.086Z,1005.03
2022-08-26T04:19:35.764Z,1004.99
2022-08-26T04:22:43.843Z,1004.99
2022-08-26T04:25:51.916Z,1005.08
2022-08-26T04:28:59.348Z,1005.08
2022-08-26T04:32:07.763Z,1005.00
2022-08-26T04:35:15.517Z,1004.96
2022-08-26T04:38:24.378Z,1004.96
2022-08-26T04:41:32.903Z,1005.00
2022-08-26T04:44:40.714Z,1004.97
2022-08-26T04:47:48.639Z,1004.99
2022-08-26T04:50:57.373Z,1004.93
2022-08-26T04:53:58.024Z,1004.96
2022-08-26T04:57:06.524Z,1004.98
2022-08-26T05:00:15.217Z,1004.98
2022-08-26T05:03:22.686Z,1004.97
2022-08-26T05:06:30.868Z,1004.94
2022-08-26T05:09:34.090Z,1005.00
2022-08-26T05:12:41.840Z,1005.02
2022-08-26T05:15:52.099Z,1005.07
2022-08-26T05:19:00.090Z,1005.03
2022-08-26T05:22:07.842Z,1005.05
2022-08-26T05:25:15.771Z,1005.00
2022-08-26T05:28:23.556Z,1005.14
2022-08-26T05:31:31.809Z,1005.14
2022-08-26T05:34:39.509Z,1005.15
2022-08-26T05:37:39.919Z,1005.17
2022-08-26T05:40:47.578Z,1005.08
2022-08-26T05:43:55.849Z,1005.11
2022-08-26T05:47:03.791Z,1005.17
2022-08-26T05:50:11.693Z,1005.17
2022-08-26T05:53:20.094Z,1005.19
2022-08-26T05:56:27.995Z,1005.08
2022-08-26T05:59:36.294Z,1005.07
2022-08-26T06:02:36.379Z,1005.07
2022-08-26T06:05:44.083Z,1005.11
2022-08-26T06:08:52.842Z,1005.09
2022-08-26T06:12:00.449Z,1005.10
2022-08-26T06:15:09.036Z,1005.07
2022-08-26T06:18:17.335Z,1005.03
2022-08-26T06:21:25.103Z,1005.02
2022-08-26T06:24:33.315Z,1005.08
2022-08-26T06:27:42.214Z,1005.03
2022-08-26T06:30:49.743Z,1005.01
2022-08-26T06:33:58.390Z,1005.04
2022-08-26T06:37:06.683Z,1005.16
2022-08-26T06:40:14.610Z,1005.10
2022-08-26T06:43:23.259Z,1005.15
2022-08-26T06:46:31.000Z,1005.17
2022-08-26T06:49:38.836Z,1005.21
2022-08-26T06:52:47.657Z,1005.32
2022-08-26T06:55:56.612Z,1005.25
2022-08-26T06:59:04.558Z,1005.24
2022-08-26T07:02:04.508Z,1005.16
2022-08-26T07:05:12.915Z,1005.23
2022-08-26T07:08:20.771Z,1005.21
2022-08-26T07:11:28.641Z,1005.31
2022-08-26T07:14:38.304Z,1005.30
2022-08-26T07:17:45.812Z,1005.37
2022-08-26T07:20:54.145Z,1005.35
2022-08-26T07:24:02.529Z,1005.33
2022-08-26T07:27:10.191Z,1005.29
2022-08-26T07:30:18.460Z,1005.25
2022-08-26T07:33:26.381Z,1005.24
2022-08-26T07:36:34.868Z,1005.26
2022-08-26T07:39:43.617Z,1005.33
2022-08-26T07:42:51.454Z,1005.34
2022-08-26T07:46:00.400Z,1005.34
2022-08-26T07:49:08.863Z,1005.32
2022-08-26T07:52:16.265Z,1005.34
2022-08-26T07:55:24.779Z,1005.41
2022-08-26T07:58:32.663Z,1005.38
2022-08-26T08:01:40.555Z,1005.34
2022-08-26T08:04:42.498Z,1005.27
2022-08-26T08:07:53.601Z,1005.26
2022-08-26T08:10:55.378Z,1005.32
2022-08-26T08:14:03.147Z,1005.36
2022-08-26T08:17:06.113Z,1005.38
2022-08-26T08:20:14.551Z,1005.35
2022-08-26T08:23:22.427Z,1005.35
2022-08-26T08:26:32.195Z,1005.22
2022-08-26T08:29:40.317Z,1005.21
2022-08-26T08:32:48.687Z,1005.17
2022-08-26T08:35:56.751Z,1005.11
2022-08-26T08:39:04.332Z,1005.09
2022-08-26T08:42:14.772Z,1005.07
2022-08-26T08:45:22.574Z,1005.07
2022-08-26T08:48:30.148Z,1005.04
2022-08-26T08:51:38.547Z,1004.97
2022-08-26T08:54:46.090Z,1004.91
2022-08-26T08:57:54.481Z,1004.92
2022-08-26T09:01:02.796Z,1004.86
2022-08-26T09:04:10.282Z,1004.77
2022-08-26T09:07:19.305Z,1004.68
2022-08-26T09:10:29.118Z,1004.61
2022-08-26T09:13:37.096Z,1004.55
2022-08-26T09:16:45.152Z,1004.56
2022-08-26T09:19:52.758Z,1004.56
2022-08-26T09:23:00.574Z,1004.51
2022-08-26T09:26:09.185Z,1004.47
2022-08-26T09:29:17.669Z,1004.57
2022-08-26T09:32:26.141Z,1004.53
2022-08-26T09:35:33.757Z,1004.52
2022-08-26T09:38:41.891Z,1004.52
2022-08-26T09:41:50.076Z,1004.52
2022-08-26T09:44:58.069Z,1004.50
2022-08-26T09:48:06.424Z,1004.45
2022-08-26T09:51:14.484Z,1004.46
2022-08-26T09:54:23.097Z,1004.43
2022-08-26T09:57:27.793Z,1004.46
2022-08-26T10:00:38.518Z,1004.42
2022-08-26T10:03:47.003Z,1004.48
2022-08-26T10:06:55.419Z,1004.41
2022-08-26T10:10:02.791Z,1004.39
2022-08-26T10:13:11.344Z,1004.41
2022-08-26T10:16:19.140Z,1004.34
2022-08-26T10:19:37.912Z,1004.34
2022-08-26T10:22:32.966Z,1004.36
2022-08-26T10:25:40.927Z,1004.32
2022-08-26T10:28:49.219Z,1004.29
2022-08-26T10:32:02.583Z,1004.28
2022-08-26T10:35:00.433Z,1004.15
2022-08-26T10:38:08.769Z,1004.14
2022-08-26T10:41:18.067Z,1004.07
2022-08-26T10:44:25.985Z,1004.03
2022-08-26T10:47:33.752Z,1004.01
2022-08-26T10:50:41.587Z,1003.99
2022-08-26T10:53:51.455Z,1003.95
2022-08-26T10:56:59.407Z,1003.88
2022-08-26T11:00:06.964Z,1003.82
2022-08-26T11:03:22.103Z,1003.76
2022-08-26T11:06:18.864Z,1003.84
2022-08-26T11:09:28.869Z,1003.82
2022-08-26T11:12:37.193Z,1003.74
2022-08-26T11:15:44.802Z,1003.78
2022-08-26T11:18:53.261Z,1003.74
2022-08-26T11:22:01.253Z,1003.66
2022-08-26T11:25:11.441Z,1003.58
2022-08-26T11:28:20.188Z,1003.49
2022-08-26T11:31:28.746Z,1003.41
2022-08-26T11:34:29.230Z,1003.44
2022-08-26T11:37:37.649Z,1003.40
2022-08-26T11:40:38.054Z,1003.35
2022-08-26T11:43:46.268Z,1003.22
2022-08-26T11:46:54.484Z,1003.12
2022-08-26T11:50:02.298Z,1003.06
2022-08-26T11:53:10.185Z,1003.06
2022-08-26T11:56:18.086Z,1003.05
2022-08-26T11:59:29.195Z,1003.05
2022-08-26T12:02:38.665Z,1003.01
2022-08-26T12:05:47.061Z,1002.99
2022-08-26T12:08:55.005Z,1002.94
2022-08-26T12:12:03.217Z,1002.89
2022-08-26T12:15:12.263Z,1002.83
2022-08-26T12:18:28.579Z,1002.83
2022-08-26T12:21:25.500Z,1002.82
2022-08-26T12:24:33.798Z,1002.83
2022-08-26T12:27:42.227Z,1002.78
2022-08-26T12:30:50.065Z,1002.76
2022-08-26T12:33:59.093Z,1002.75
2022-08-26T12:37:07.273Z,1002.72
2022-08-26T12:40:15.362Z,1002.58
2022-08-26T12:43:23.740Z,1002.62
2022-08-26T12:46:31.229Z,1002.57
2022-08-26T12:49:39.450Z,1002.65
2022-08-26T12:52:47.226Z,1002.65
2022-08-26T12:55:55.131Z,1002.72
2022-08-26T12:59:03.280Z,1002.69
2022-08-26T13:02:11.573Z,1002.63
2022-08-26T13:05:19.609Z,1002.52
2022-08-26T13:08:27.684Z,1002.47
2022-08-26T13:11:35.881Z,1002.40
2022-08-26T13:14:43.823Z,1002.32
2022-08-26T13:17:51.722Z,1002.29
2022-08-26T13:20:59.588Z,1002.26
2022-08-26T13:24:08.186Z,1002.33
2022-08-26T13:27:16.029Z,1002.35
2022-08-26T13:30:23.881Z,1002.39
2022-08-26T13:33:32.132Z,1002.37
2022-08-26T13:36:40.453Z,1002.39
2022-08-26T13:39:48.551Z,1002.45
2022-08-26T13:42:56.576Z,1002.45
2022-08-26T13:46:05.017Z,1002.46
2022-08-26T13:49:12.548Z,1002.47
2022-08-26T13:52:29.133Z,1002.41
2022-08-26T13:55:26.182Z,1002.33
2022-08-26T13:58:33.649Z,1002.34
2022-08-26T14:01:41.844Z,1002.24
2022-08-26T14:04:49.737Z,1002.13
2022-08-26T14:07:57.679Z,1002.05
2022-08-26T14:11:06.242Z,1001.96
2022-08-26T14:14:14.003Z,1001.96
2022-08-26T14:17:21.911Z,1001.87
2022-08-26T14:20:30.144Z,1002.00
2022-08-26T14:23:38.044Z,1002.06
2022-08-26T14:26:45.850Z,1002.15
2022-08-26T14:29:53.918Z,1002.17
2022-08-26T14:33:02.048Z,1002.12
2022-08-26T14:36:10.229Z,1002.19
2022-08-26T14:39:18.722Z,1002.17
2022-08-26T14:42:27.542Z,1002.10
2022-08-26T14:45:29.376Z,1002.12
2022-08-26T14:48:37.333Z,1002.18
2022-08-26T14:51:45.538Z,1002.24
2022-08-26T14:54:55.028Z,1002.35
2022-08-26T14:58:02.919Z,1002.31
2022-08-26T15:01:11.120Z,1002.33
2022-08-26T15:04:19.102Z,1002.26
2022-08-26T15:07:27.613Z,1002.30
2022-08-26T15:10:35.721Z,1002.22
2022-08-26T15:13:43.343Z,1002.23
2022-08-26T15:16:51.092Z,1002.28
2022-08-26T15:19:59.034Z,1002.26
2022-08-26T15:23:06.410Z,1002.34
2022-08-26T15:26:14.799Z,1002.34
2022-08-26T15:29:22.915Z,1002.33
2022-08-26T15:32:31.074Z,1002.36
2022-08-26T15:35:40.394Z,1002.30
2022-08-26T15:38:39.859Z,1002.46
2022-08-26T15:41:48.330Z,1002.45
2022-08-26T15:44:56.531Z,1002.56
2022-08-26T15:48:04.054Z,1002.66
2022-08-26T15:51:12.153Z,1002.62
2022-08-26T15:54:20.034Z,1002.68
2022-08-26T15:57:27.926Z,1003.00
2022-08-26T16:00:35.734Z,1002.81
2022-08-26T16:03:43.189Z,1002.86
2022-08-26T16:06:51.320Z,1002.80
2022-08-26T16:09:59.554Z,1002.72
2022-08-26T16:13:09.358Z,1002.70
2022-08-26T16:16:09.141Z,1002.74
2022-08-26T16:19:16.805Z,1002.72
2022-08-26T16:22:24.616Z,1002.66
2022-08-26T16:25:26.138Z,1002.79
2022-08-26T16:28:33.619Z,1002.80
2022-08-26T16:31:41.943Z,1002.78
2022-08-26T16:34:50.291Z,1002.86
2022-08-26T16:37:54.043Z,1003.05
2022-08-26T16:41:01.856Z,1002.95
2022-08-26T16:44:10.094Z,1002.99
2022-08-26T16:47:17.596Z,1003.01
2022-08-26T16:50:25.368Z,1002.85
2022-08-26T16:53:32.850Z,1002.84
2022-08-26T16:56:40.548Z,1002.87
2022-08-26T16:59:48.751Z,1003.03
2022-08-26T17:02:56.757Z,1003.05
2022-08-26T17:06:04.642Z,1003.12
2022-08-26T17:09:12.955Z,1003.31
2022-08-26T17:12:20.857Z,1003.37
2022-08-26T17:15:28.683Z,1003.32
2022-08-26T17:18:36.578Z,1003.30
2022-08-26T17:21:44.671Z,1003.24
2022-08-26T17:24:52.689Z,1003.25
2022-08-26T17:28:01.332Z,1003.23
2022-08-26T17:31:09.366Z,1003.20
2022-08-26T17:34:17.413Z,1003.12
2022-08-26T17:37:25.428Z,1003.07
2022-08-26T17:40:33.291Z,1003.09
2022-08-26T17:43:41.074Z,1003.11
2022-08-26T17:46:49.263Z,1003.03
2022-08-26T17:49:57.096Z,1002.92
2022-08-26T17:53:04.923Z,1002.94
2022-08-26T17:56:13.394Z,1003.11
2022-08-26T17:59:21.397Z,1003.04
2022-08-26T18:05:40.050Z,1003.15
2022-08-26T18:08:47.931Z,1003.28
2022-08-26T18:11:55.851Z,1003.27
2022-08-26T18:15:04.312Z,1003.24
2022-08-26T18:18:11.893Z,1003.28
2022-08-26T18:21:20.108Z,1003.42
2022-08-26T18:24:28.544Z,1003.31
2022-08-26T18:27:36.210Z,1003.35
2022-08-26T18:30:44.211Z,1003.44
2022-08-26T18:33:52.437Z,1003.52
2022-08-26T18:36:59.937Z,1003.54
2022-08-26T18:40:08.246Z,1003.56
2022-08-26T18:43:15.752Z,1003.54
2022-08-26T18:46:24.576Z,1003.58
2022-08-26T18:49:33.798Z,1003.65
2022-08-26T18:52:41.606Z,1003.65
2022-08-26T18:55:50.117Z,1003.75
2022-08-26T18:58:58.351Z,1003.74
2022-08-26T19:02:06.004Z,1003.77
2022-08-26T19:05:14.533Z,1003.87
2022-08-26T19:08:22.335Z,1003.89
2022-08-26T19:11:32.257Z,1003.98
2022-08-26T19:14:34.799Z,1003.97
2022-08-26T19:17:42.487Z,1003.97
2022-08-26T19:20:50.539Z,1003.90
2022-08-26T19:23:59.132Z,1003.94
2022-08-26T19:27:08.315Z,1003.98
2022-08-26T19:30:18.034Z,1003.93
2022-08-26T19:33:25.824Z,1003.89
2022-08-26T19:36:34.387Z,1003.95
2022-08-26T19:39:42.464Z,1003.92
2022-08-26T19:42:50.655Z,1004.04
2022-08-26T19:45:59.418Z,1003.97
2022-08-26T19:49:07.731Z,1003.94
2022-08-26T19:52:15.742Z,1003.89
2022-08-26T19:55:24.171Z,1003.85
2022-08-26T19:58:31.960Z,1003.76
2022-08-26T20:01:39.790Z,1003.73
2022-08-26T20:04:48.346Z,1003.76
2022-08-26T20:07:55.787Z,1003.77
2022-08-26T20:11:03.828Z,1003.68
2022-08-26T20:14:13.244Z,1003.71
2022-08-26T20:17:21.022Z,1003.67
2022-08-26T20:20:33.318Z,1003.71
2022-08-26T20:23:31.365Z,1003.62
2022-08-26T20:26:38.876Z,1003.59
2022-08-26T20:29:47.260Z,1003.59
2022-08-26T20:32:55.118Z,1003.66
2022-08-26T20:36:03.220Z,1003.69
2022-08-26T20:39:05.055Z,1003.76
2022-08-26T20:42:19.811Z,1003.81
2022-08-26T20:45:16.851Z,1003.79
2022-08-26T20:48:24.683Z,1003.86
2022-08-26T20:51:33.177Z,1003.93
2022-08-26T20:54:41.275Z,1003.95
2022-08-26T20:57:49.216Z,1004.05
2022-08-26T21:00:57.493Z,1004.09
2022-08-26T21:04:05.418Z,1004.13
2022-08-26T21:07:13.431Z,1004.07
2022-08-26T21:10:21.791Z,1004.09
2022-08-26T21:13:42.822Z,1004.09
2022-08-26T21:16:39.741Z,1004.09
2022-08-26T21:19:48.454Z,1004.16
2022-08-26T21:22:55.963Z,1004.21
2022-08-26T21:26:04.266Z,1004.20
2022-08-26T21:29:12.416Z,1004.23
2022-08-26T21:32:19.898Z,1004.22
2022-08-26T21:35:28.172Z,1004.21
2022-08-26T21:38:35.782Z,1004.18
2022-08-26T21:41:43.512Z,1004.19
2022-08-26T21:44:52.803Z,1004.14
2022-08-26T21:48:00.395Z,1004.24
2022-08-26T21:51:08.886Z,1004.29
2022-08-26T21:54:17.305Z,1004.14
2022-08-26T21:57:24.752Z,1004.36
2022-08-26T22:00:32.926Z,1004.45
2022-08-26T22:03:47.542Z,1004.45
2022-08-26T22:06:45.041Z,1004.53
2022-08-26T22:09:53.303Z,1004.52
2022-08-26T22:13:01.314Z,1004.53
2022-08-26T22:16:09.289Z,1004.53
2022-08-26T22:19:17.565Z,1004.55
2022-08-26T22:22:25.477Z,1004.49
2022-08-26T22:25:33.554Z,1004.46
2022-08-26T22:28:41.422Z,1004.54
2022-08-26T22:31:49.672Z,1004.50
2022-08-26T22:34:57.509Z,1004.52
2022-08-26T22:38:05.681Z,1004.44
2022-08-26T22:41:13.966Z,1004.44
2022-08-26T22:44:21.776Z,1004.36
2022-08-26T22:47:29.754Z,1004.29
2022-08-26T22:50:38.048Z,1004.38
2022-08-26T22:53:45.549Z,1004.37
2022-08-26T22:56:53.500Z,1004.35
2022-08-26T23:00:01.429Z,1004.36
2022-08-26T23:03:09.015Z,1004.42
2022-08-26T23:06:17.271Z,1004.45
2022-08-26T23:09:25.590Z,1004.41
2022-08-26T23:12:33.085Z,1004.42
2022-08-26T23:15:41.406Z,1004.38
2022-08-26T23:18:49.311Z,1004.43
2022-08-26T23:21:57.008Z,1004.41
2022-08-26T23:25:07.815Z,1004.37
2022-08-26T23:28:15.429Z,1004.45
2022-08-26T23:31:23.289Z,1004.31
2022-08-26T23:34:31.744Z,1004.32
2022-08-26T23:37:39.230Z,1004.27
2022-08-26T23:40:48.991Z,1004.19
2022-08-26T23:44:01.595Z,1004.15
2022-08-26T23:47:00.006Z,1004.16
2022-08-26T23:50:08.281Z,1004.14
2022-08-26T23:53:16.630Z,1004.06
2022-08-26T23:56:24.139Z,1004.03
2022-08-26T23:59:34.676Z,1004.05
